Time;durP1;ratioP1;P1;durP2;ratioP2;P2;SDS_P1;SDS_P2;PMS_P1;PMS_P2;Temp;Humidity;BMP_temperature;BMP_pressure;BME280_temperature;BME280_humidity;BME280_pressure;Samples;Min_cycle;Max_cycle;Signal;HPM_P1;HPM_P2
2022/03/15 00:00:19;;;;;;;0.35;0.35;;;6.50;80.00;;;;;;5034123;28;20060;-76
2022/03/15 00:02:45;;;;;;;0.82;0.82;;;6.30;79.50;;;;;;5016365;28;20026;-75
2022/03/15 00:05:11;;;;;;;0.30;0.30;;;6.20;80.40;;;;;;5034037;28;20116;-76
2022/03/15 00:07:36;;;;;;;0.40;0.40;;;6.10;80.20;;;;;;5033966;28;20101;-75
2022/03/15 00:10:06;;;;;;;0.30;0.30;;;6.10;81.00;;;;;;5033982;28;20033;-75
2022/03/15 00:12:33;;;;;;;0.40;0.40;;;6.30;81.00;;;;;;5032818;28;20400;-75
2022/03/15 00:14:59;;;;;;;0.32;0.32;;;6.40;80.50;;;;;;5033926;28;20026;-75
2022/03/15 00:17:24;;;;;;;0.30;0.30;;;6.40;79.80;;;;;;5032424;28;20088;-76
2022/03/15 00:19:51;;;;;;;0.30;0.30;;;6.30;80.40;;;;;;5033762;28;20068;-75
2022/03/15 00:22:17;;;;;;;0.30;0.30;;;6.30;80.00;;;;;;5033851;28;20436;-75
2022/03/15 00:24:43;;;;;;;0.30;0.30;;;6.30;80.40;;;;;;5032322;28;20380;-75
2022/03/15 00:27:14;;;;;;;0.47;0.47;;;6.30;81.20;;;;;;5033575;28;20021;-75
2022/03/15 00:29:40;;;;;;;0.67;0.67;;;6.40;81.10;;;;;;5033681;28;20469;-75
2022/03/15 00:32:07;;;;;;;0.30;0.30;;;6.50;79.40;;;;;;5032383;28;20464;-76
2022/03/15 00:34:34;;;;;;;0.57;0.57;;;6.40;80.10;;;;;;5032472;28;20451;-75
2022/03/15 00:36:59;;;;;;;12.05;10.00;;;6.20;80.40;;;;;;5015589;28;20029;-75
2022/03/15 00:39:25;;;;;;;0.30;0.30;;;6.30;80.40;;;;;;5033479;28;20397;-76
2022/03/15 00:41:51;;;;;;;1.15;1.15;;;6.20;80.40;;;;;;5033203;28;20025;-75
2022/03/15 00:44:18;;;;;;;0.47;0.47;;;6.20;81.00;;;;;;5048581;28;20033;-76
2022/03/15 00:46:44;;;;;;;0.30;0.30;;;6.00;81.50;;;;;;5031993;28;20048;-75
2022/03/15 00:49:09;;;;;;;0.50;0.50;;;5.90;82.10;;;;;;5032025;28;20025;-75
2022/03/15 00:51:36;;;;;;;0.30;0.30;;;6.00;81.90;;;;;;5032019;28;20053;-76
2022/03/15 00:54:02;;;;;;;0.40;0.40;;;6.10;81.70;;;;;;5033070;28;20025;-76
2022/03/15 00:56:28;;;;;;;0.30;0.30;;;6.10;81.20;;;;;;5031579;28;20489;-75
2022/03/15 00:58:53;;;;;;;1.98;1.88;;;6.30;81.60;;;;;;5033097;28;20132;-76
2022/03/15 01:01:19;;;;;;;0.30;0.30;;;6.50;80.80;;;;;;5015248;28;20113;-75
2022/03/15 01:03:45;;;;;;;0.30;0.30;;;6.60;81.10;;;;;;5032980;28;20032;-75
2022/03/15 01:06:10;;;;;;;0.50;0.50;;;6.70;80.50;;;;;;5033205;28;20025;-76
2022/03/15 01:08:36;;;;;;;0.30;0.30;;;6.60;80.90;;;;;;5033038;28;20022;-75
2022/03/15 01:11:03;;;;;;;0.52;0.52;;;6.60;80.30;;;;;;5048152;28;20028;-75
2022/03/15 01:13:29;;;;;;;0.30;0.30;;;6.60;80.90;;;;;;5031530;28;20619;-75
2022/03/15 01:15:55;;;;;;;2.38;2.28;;;6.70;80.80;;;;;;5031229;28;20033;-76
2022/03/15 01:18:20;;;;;;;0.30;0.30;;;6.80;80.30;;;;;;5031470;28;20029;-76
2022/03/15 01:20:47;;;;;;;5.57;1.05;;;6.80;80.00;;;;;;5031388;28;20378;-75
2022/03/15 01:23:13;;;;;;;0.40;0.40;;;6.60;79.50;;;;;;5031491;28;20273;-75
2022/03/15 01:25:39;;;;;;;0.30;0.30;;;6.40;80.30;;;;;;5032364;28;20021;-75
2022/03/15 01:28:05;;;;;;;0.30;0.30;;;6.40;81.00;;;;;;5031378;28;20500;-75
2022/03/15 01:30:31;;;;;;;0.20;0.20;;;6.40;81.30;;;;;;5032546;28;20029;-76
2022/03/15 01:32:57;;;;;;;0.30;0.30;;;6.40;82.00;;;;;;5031295;28;20048;-75
2022/03/15 01:35:23;;;;;;;0.40;0.40;;;6.20;82.20;;;;;;5032358;28;20035;-77
2022/03/15 01:37:49;;;;;;;0.35;0.35;;;6.50;82.70;;;;;;5031034;28;20485;-75
2022/03/15 01:40:15;;;;;;;0.30;0.30;;;6.70;81.20;;;;;;5032309;28;20041;-75
2022/03/15 01:42:41;;;;;;;3.47;3.22;;;6.60;81.30;;;;;;5032234;28;20026;-75
2022/03/15 01:45:08;;;;;;;1.30;1.05;;;6.70;81.40;;;;;;5032255;28;20028;-75
2022/03/15 01:47:34;;;;;;;0.30;0.30;;;6.50;80.00;;;;;;5030944;28;20388;-76
2022/03/15 01:49:59;;;;;;;0.93;0.93;;;6.40;80.70;;;;;;5032289;28;20025;-75
2022/03/15 01:52:25;;;;;;;0.30;0.30;;;6.50;81.20;;;;;;5032192;28;20025;-75
2022/03/15 01:54:51;;;;;;;1.00;0.65;;;6.20;78.60;;;;;;5031520;28;20025;-75
2022/03/15 01:57:17;;;;;;;8.30;1.02;;;5.80;79.60;;;;;;5030780;28;20029;-75
2022/03/15 01:59:44;;;;;;;0.25;0.25;;;5.60;81.40;;;;;;5032040;28;20121;-75
2022/03/15 02:02:10;;;;;;;0.30;0.30;;;5.70;81.70;;;;;;5014300;28;20477;-75
2022/03/15 02:04:36;;;;;;;0.30;0.30;;;5.70;81.20;;;;;;5030724;28;20025;-75
2022/03/15 02:07:11;;;;;;;0.30;0.30;;;5.70;82.00;;;;;;5031857;28;20018;-75
2022/03/15 02:09:37;;;;;;;0.63;0.63;;;5.70;83.30;;;;;;5030782;28;20546;-75
2022/03/15 02:12:03;;;;;;;1.50;0.88;;;5.90;82.20;;;;;;5031962;28;20026;-75
2022/03/15 02:14:29;;;;;;;0.30;0.30;;;5.90;82.10;;;;;;5031961;28;20025;-75
2022/03/15 02:16:55;;;;;;;0.30;0.30;;;5.90;81.50;;;;;;5031889;28;20032;-75
2022/03/15 02:19:22;;;;;;;0.40;0.40;;;6.20;82.10;;;;;;5031939;28;20156;-75
2022/03/15 02:21:49;;;;;;;0.30;0.30;;;6.40;80.30;;;;;;5013934;28;20086;-76
2022/03/15 02:24:15;;;;;;;2.10;1.98;;;6.40;80.60;;;;;;5031825;28;20039;-75
2022/03/15 02:26:41;;;;;;;1.65;1.55;;;6.20;79.10;;;;;;5030396;28;20477;-76
2022/03/15 02:29:07;;;;;;;1.40;1.08;;;5.80;80.60;;;;;;5031995;28;20400;-75
2022/03/15 02:31:32;;;;;;;0.65;0.65;;;5.30;83.20;;;;;;5014086;28;20026;-75
2022/03/15 02:33:58;;;;;;;0.47;0.47;;;4.90;86.40;;;;;;5031679;28;20055;-75
2022/03/15 02:36:24;;;;;;;0.30;0.30;;;5.10;86.80;;;;;;5031528;28;20062;-75
2022/03/15 02:38:49;;;;;;;1.25;1.25;;;5.10;86.50;;;;;;5031764;28;20021;-75
2022/03/15 02:41:15;;;;;;;0.22;0.22;;;5.40;87.10;;;;;;5031599;28;20424;-75
2022/03/15 02:43:43;;;;;;;0.28;0.28;;;5.80;86.00;;;;;;5031654;28;20022;-76
2022/03/15 02:46:10;;;;;;;0.32;0.32;;;6.20;84.50;;;;;;5030299;28;20034;-76
2022/03/15 02:48:36;;;;;;;0.50;0.50;;;6.30;82.00;;;;;;5031761;28;20029;-76
2022/03/15 02:51:06;;;;;;;1.02;1.02;;;6.00;81.80;;;;;;5013766;28;20500;-76
2022/03/15 02:53:32;;;;;;;0.38;0.38;;;5.60;82.50;;;;;;5030465;28;20032;-75
2022/03/15 02:55:58;;;;;;;0.55;0.55;;;5.40;83.40;;;;;;5031340;28;20026;-76
2022/03/15 02:58:24;;;;;;;1.85;0.60;;;5.30;83.80;;;;;;5031809;28;20025;-75
2022/03/15 03:00:50;;;;;;;0.40;0.40;;;5.30;84.10;;;;;;5013808;28;20105;-76
2022/03/15 03:03:15;;;;;;;0.32;0.32;;;5.20;84.50;;;;;;5013764;28;20028;-75
2022/03/15 03:05:41;;;;;;;0.40;0.40;;;5.10;85.40;;;;;;5029855;28;20037;-75
2022/03/15 03:08:07;;;;;;;0.40;0.40;;;5.20;84.80;;;;;;5034609;28;20025;-75
2022/03/15 03:10:33;;;;;;;0.35;0.35;;;5.30;85.00;;;;;;5035356;28;20022;-75
2022/03/15 03:12:59;;;;;;;0.40;0.40;;;5.20;85.10;;;;;;5033869;28;20029;-75
2022/03/15 03:15:26;;;;;;;2.80;2.33;;;5.10;86.10;;;;;;5034992;28;20084;-75
2022/03/15 03:17:52;;;;;;;1.77;1.30;;;5.00;87.50;;;;;;5017150;28;20029;-75
2022/03/15 03:20:19;;;;;;;0.68;0.68;;;5.00;87.50;;;;;;5048452;22;20102;-71
2022/03/15 03:22:50;;;;;;;0.30;0.30;;;5.10;87.60;;;;;;5034909;28;20048;-71
2022/03/15 03:25:16;;;;;;;0.40;0.40;;;5.30;87.40;;;;;;5017242;28;20040;-71
2022/03/15 03:27:42;;;;;;;0.40;0.40;;;5.40;85.50;;;;;;5034964;28;20026;-71
2022/03/15 03:30:09;;;;;;;0.30;0.30;;;5.30;86.10;;;;;;5034882;28;20749;-71
2022/03/15 03:32:35;;;;;;;0.30;0.30;;;5.40;85.10;;;;;;5017112;28;20026;-71
2022/03/15 03:35:04;;;;;;;0.30;0.30;;;5.40;84.20;;;;;;5033395;28;20362;-71
2022/03/15 03:37:31;;;;;;;0.40;0.40;;;5.40;84.60;;;;;;5034619;28;20408;-71
2022/03/15 03:39:57;;;;;;;0.95;0.63;;;5.40;83.70;;;;;;5035122;28;20133;-71
2022/03/15 03:42:24;;;;;;;0.68;0.68;;;5.40;83.70;;;;;;5017658;28;20025;-71
2022/03/15 03:44:50;;;;;;;1.95;0.98;;;5.20;84.70;;;;;;5034835;28;20568;-71
2022/03/15 03:47:17;;;;;;;1.65;1.42;;;5.30;83.80;;;;;;5034380;28;20044;-71
2022/03/15 03:49:43;;;;;;;0.30;0.30;;;5.00;84.70;;;;;;5034502;28;20104;-71
2022/03/15 03:52:11;;;;;;;0.30;0.30;;;4.90;84.40;;;;;;5033055;28;20056;-71
2022/03/15 03:54:37;;;;;;;0.30;0.30;;;4.80;86.20;;;;;;5034360;28;20068;-71
2022/03/15 03:57:03;;;;;;;0.30;0.30;;;5.10;85.60;;;;;;5034264;28;20029;-72
2022/03/15 03:59:29;;;;;;;0.30;0.30;;;5.30;84.40;;;;;;5034251;28;20033;-72
2022/03/15 04:01:55;;;;;;;0.65;0.65;;;5.20;83.40;;;;;;5034076;28;20029;-71
2022/03/15 04:04:21;;;;;;;0.90;0.60;;;4.90;83.90;;;;;;5034029;28;20025;-71
2022/03/15 04:06:47;;;;;;;0.30;0.30;;;4.90;85.30;;;;;;5032864;28;20025;-72
2022/03/15 04:09:13;;;;;;;0.50;0.50;;;5.10;85.60;;;;;;5032961;28;20022;-72
2022/03/15 04:11:40;;;;;;;0.40;0.40;;;5.20;84.20;;;;;;5034107;28;20074;-72
2022/03/15 04:14:08;;;;;;;1.05;0.95;;;5.20;84.60;;;;;;5033969;28;20025;-72
2022/03/15 04:16:34;;;;;;;0.32;0.32;;;5.30;84.40;;;;;;5033901;28;20473;-72
2022/03/15 04:18:59;;;;;;;0.30;0.30;;;5.50;83.80;;;;;;5033407;28;20049;-71
2022/03/15 04:21:25;;;;;;;0.40;0.40;;;5.80;80.60;;;;;;5033785;28;20777;-72
2022/03/15 04:23:56;;;;;;;0.55;0.55;;;6.00;78.60;;;;;;5032574;28;20022;-72
2022/03/15 04:26:23;;;;;;;0.30;0.30;;;6.20;77.40;;;;;;5033985;28;20029;-72
2022/03/15 04:28:49;;;;;;;0.30;0.30;;;6.30;77.50;;;;;;5033776;28;20044;-72
2022/03/15 04:31:14;;;;;;;0.30;0.30;;;6.60;76.50;;;;;;5033646;28;20026;-72
2022/03/15 04:33:40;;;;;;;0.30;0.30;;;6.80;74.70;;;;;;5033523;28;20642;-72
2022/03/15 04:36:07;;;;;;;6.43;5.97;;;6.90;74.70;;;;;;5033535;28;20024;-72
2022/03/15 04:38:36;;;;;;;0.30;0.30;;;6.90;74.90;;;;;;5033554;28;20096;-72
2022/03/15 04:41:05;;;;;;;0.68;0.68;;;6.70;75.70;;;;;;5033469;28;20052;-72
2022/03/15 04:43:32;;;;;;;0.65;0.65;;;6.60;77.00;;;;;;5032196;28;20036;-72
2022/03/15 04:45:58;;;;;;;0.73;0.52;;;6.20;78.60;;;;;;5033335;28;20022;-72
2022/03/15 04:48:24;;;;;;;0.30;0.30;;;6.20;79.20;;;;;;5033322;28;20539;-72
2022/03/15 04:50:50;;;;;;;0.30;0.30;;;6.30;79.20;;;;;;5033377;28;20025;-72
2022/03/15 04:53:17;;;;;;;1.55;1.52;;;6.40;78.80;;;;;;5031950;28;20026;-72
2022/03/15 04:55:43;;;;;;;0.30;0.30;;;6.30;79.10;;;;;;5031812;28;20533;-72
2022/03/15 04:58:09;;;;;;;0.30;0.30;;;6.40;79.50;;;;;;5033135;28;20049;-72
2022/03/15 05:00:34;;;;;;;0.50;0.50;;;6.30;80.40;;;;;;5031810;28;20025;-71
2022/03/15 05:03:00;;;;;;;0.30;0.30;;;5.90;82.00;;;;;;5032969;28;20029;-72
2022/03/15 05:05:26;;;;;;;0.30;0.30;;;5.90;82.60;;;;;;5032828;28;20037;-72
2022/03/15 05:07:52;;;;;;;1.00;1.00;;;5.80;82.80;;;;;;5031770;28;20030;-72
2022/03/15 05:13:02;;;;;;;0.90;0.90;;;5.80;84.60;;;;;;5031652;28;20166;-72
2022/03/15 05:15:28;;;;;;;0.38;0.38;;;6.00;82.20;;;;;;5032717;28;20120;-72
2022/03/15 05:17:54;;;;;;;1.80;1.70;;;6.30;80.70;;;;;;5032827;28;20059;-72
2022/03/15 05:20:20;;;;;;;0.30;0.30;;;6.40;78.90;;;;;;5031387;28;20041;-72
2022/03/15 05:22:45;;;;;;;0.30;0.30;;;6.60;79.10;;;;;;5032617;28;20074;-72
2022/03/15 05:25:13;;;;;;;0.30;0.30;;;6.80;78.40;;;;;;5032557;28;20389;-71
2022/03/15 05:27:40;;;;;;;0.75;0.75;;;6.90;77.60;;;;;;5032608;28;20068;-72
2022/03/15 05:30:07;;;;;;;0.30;0.30;;;6.90;77.10;;;;;;5030645;28;20029;-72
2022/03/15 05:32:33;;;;;;;0.73;0.73;;;6.80;78.40;;;;;;5032486;28;20025;-72
2022/03/15 05:34:59;;;;;;;0.30;0.30;;;6.80;77.30;;;;;;5032578;28;20034;-73
2022/03/15 05:37:25;;;;;;;0.30;0.30;;;6.70;77.90;;;;;;5032280;28;20037;-72
2022/03/15 05:39:51;;;;;;;1.38;0.73;;;6.60;78.40;;;;;;5032467;28;20131;-72
2022/03/15 05:42:18;;;;;;;0.30;0.30;;;6.60;78.90;;;;;;5032317;28;20125;-72
2022/03/15 05:44:45;;;;;;;0.65;0.65;;;6.50;79.00;;;;;;5032274;28;20049;-72
2022/03/15 05:47:11;;;;;;;0.30;0.30;;;6.50;79.60;;;;;;5032267;28;20380;-72
2022/03/15 05:49:37;;;;;;;0.30;0.30;;;6.60;80.00;;;;;;5032350;28;20018;-71
2022/03/15 05:52:03;;;;;;;0.40;0.40;;;6.80;79.30;;;;;;5032122;28;20037;-71
2022/03/15 05:54:30;;;;;;;0.30;0.30;;;6.80;77.90;;;;;;5047488;28;20056;-71
2022/03/15 05:56:56;;;;;;;0.30;0.30;;;6.90;78.50;;;;;;5032221;28;20033;-71
2022/03/15 05:59:22;;;;;;;0.45;0.45;;;7.10;77.60;;;;;;5032447;28;20025;-71
2022/03/15 06:01:47;;;;;;;0.30;0.30;;;7.00;76.50;;;;;;5031986;28;20087;-72
2022/03/15 06:04:13;;;;;;;0.77;0.77;;;7.10;76.00;;;;;;5031998;28;20025;-72
2022/03/15 06:06:39;;;;;;;0.30;0.30;;;7.30;74.70;;;;;;5032454;28;20028;-72
2022/03/15 06:09:05;;;;;;;0.40;0.40;;;7.40;73.60;;;;;;5032068;28;20385;-72
2022/03/15 06:11:32;;;;;;;0.40;0.40;;;7.60;72.80;;;;;;5031952;28;20071;-71
2022/03/15 06:13:58;;;;;;;0.30;0.30;;;7.60;71.90;;;;;;5014286;28;20431;-72
2022/03/15 06:16:24;;;;;;;0.30;0.30;;;7.50;71.70;;;;;;5031941;28;20126;-72
2022/03/15 06:18:50;;;;;;;0.40;0.40;;;7.60;71.50;;;;;;5031774;28;20430;-72
2022/03/15 06:21:17;;;;;;;0.30;0.30;;;7.70;72.60;;;;;;5031573;28;20038;-73
2022/03/15 06:23:43;;;;;;;0.30;0.30;;;7.70;71.60;;;;;;5031811;28;20052;-73
2022/03/15 06:26:09;;;;;;;0.30;0.30;;;7.80;71.60;;;;;;5031843;28;20017;-73
2022/03/15 06:28:36;;;;;;;0.30;0.30;;;7.80;71.50;;;;;;5031909;28;20145;-73
2022/03/15 06:31:03;;;;;;;0.30;0.30;;;8.00;71.80;;;;;;5031714;28;20068;-70
2022/03/15 06:33:29;;;;;;;0.30;0.30;;;8.10;71.60;;;;;;5031082;28;20021;-72
2022/03/15 06:35:55;;;;;;;0.47;0.47;;;8.10;71.20;;;;;;5029078;28;20569;-71
2022/03/15 06:38:21;;;;;;;0.30;0.30;;;8.10;71.70;;;;;;5031258;28;20096;-73
2022/03/15 06:40:47;;;;;;;0.20;0.20;;;7.90;73.80;;;;;;5047622;28;20029;-71
2022/03/15 06:43:13;;;;;;;0.70;0.30;;;7.80;73.20;;;;;;5035452;28;20029;-72
2022/03/15 06:45:44;;;;;;;0.30;0.30;;;7.90;73.30;;;;;;5033979;28;20075;-72
2022/03/15 06:48:10;;;;;;;0.28;0.28;;;7.80;74.10;;;;;;5035574;28;20033;-73
2022/03/15 06:50:36;;;;;;;0.30;0.30;;;7.80;75.10;;;;;;5035141;28;20021;-72
2022/03/15 06:53:03;;;;;;;0.30;0.30;;;8.00;72.90;;;;;;5050702;28;20029;-72
2022/03/15 06:55:29;;;;;;;0.30;0.30;;;8.10;73.40;;;;;;5035160;28;20043;-73
2022/03/15 06:57:55;;;;;;;0.20;0.20;;;8.20;72.70;;;;;;5035568;28;20108;-72
2022/03/15 07:00:21;;;;;;;0.30;0.30;;;8.30;71.90;;;;;;5035294;28;20028;-73
2022/03/15 07:02:47;;;;;;;0.30;0.30;;;8.40;72.00;;;;;;5035219;28;20053;-73
2022/03/15 07:05:13;;;;;;;1.02;1.02;;;8.50;71.40;;;;;;5035148;28;20095;-73
2022/03/15 07:07:39;;;;;;;0.20;0.20;;;8.50;72.20;;;;;;5050575;28;20026;-72
2022/03/15 07:10:06;;;;;;;0.30;0.30;;;8.50;73.60;;;;;;5033826;28;20481;-70
2022/03/15 07:12:33;;;;;;;0.20;0.20;;;8.60;73.60;;;;;;5034885;28;20036;-70
2022/03/15 07:15:03;;;;;;;0.20;0.20;;;8.80;72.60;;;;;;5034813;28;20022;-71
2022/03/15 07:17:30;;;;;;;0.20;0.20;;;9.00;71.90;;;;;;5034762;28;20362;-71
2022/03/15 07:19:59;;;;;;;0.60;0.60;;;9.00;69.60;;;;;;5034808;28;20053;-71
2022/03/15 07:22:26;;;;;;;0.70;0.70;;;9.10;64.50;;;;;;5034369;28;20029;-72
2022/03/15 07:24:52;;;;;;;0.90;0.90;;;9.30;63.40;;;;;;5049911;28;20376;-73
2022/03/15 07:27:18;;;;;;;0.30;0.30;;;9.40;62.70;;;;;;5034684;28;20036;-72
2022/03/15 07:29:44;;;;;;;0.20;0.20;;;9.60;62.40;;;;;;5034600;28;20223;-72
2022/03/15 07:32:10;;;;;;;4.60;4.05;;;9.80;61.50;;;;;;5034236;28;20038;-72
2022/03/15 07:34:36;;;;;;;0.25;0.25;;;9.80;60.80;;;;;;5049851;28;20025;-72
2022/03/15 07:37:03;;;;;;;0.30;0.30;;;9.90;60.90;;;;;;5034640;28;20048;-70
2022/03/15 07:39:29;;;;;;;0.35;0.35;;;10.10;60.80;;;;;;5034650;28;20117;-73
2022/03/15 07:41:55;;;;;;;0.30;0.30;;;10.10;60.30;;;;;;5034242;28;20099;-73
2022/03/15 07:44:21;;;;;;;1.75;0.95;;;10.10;59.80;;;;;;5032475;28;20381;-70
2022/03/15 07:46:50;;;;;;;0.30;0.30;;;10.10;59.50;;;;;;5032363;28;20032;-70
2022/03/15 07:49:19;;;;;;;0.30;0.30;;;10.10;59.00;;;;;;5032800;28;20013;-71
2022/03/15 07:51:49;;;;;;;0.20;0.20;;;10.10;58.70;;;;;;5032587;28;20104;-73
2022/03/15 07:54:16;;;;;;;3.60;2.83;;;10.20;59.20;;;;;;5031936;28;20025;-72
2022/03/15 07:56:43;;;;;;;0.47;0.47;;;10.40;58.90;;;;;;5029718;28;20104;-72
2022/03/15 07:59:08;;;;;;;1.88;1.75;;;10.60;59.10;;;;;;5022996;28;20483;-72
2022/03/15 08:01:34;;;;;;;0.30;0.30;;;10.70;58.80;;;;;;5024371;28;20118;-72
2022/03/15 08:04:01;;;;;;;0.20;0.20;;;10.80;58.90;;;;;;5025734;28;20040;-73
2022/03/15 08:06:27;;;;;;;0.30;0.30;;;11.00;58.50;;;;;;5026746;28;20405;-73
2022/03/15 08:08:57;;;;;;;0.20;0.20;;;11.00;58.00;;;;;;5028036;28;20527;-73
2022/03/15 08:11:26;;;;;;;0.55;0.55;;;11.10;57.90;;;;;;5027095;28;20026;-72
2022/03/15 08:13:56;;;;;;;1.27;1.23;;;11.10;57.90;;;;;;5025952;28;20068;-73
2022/03/15 08:16:22;;;;;;;2.45;2.35;;;11.10;58.60;;;;;;5027279;28;20026;-72
2022/03/15 08:18:52;;;;;;;0.20;0.20;;;11.10;59.00;;;;;;5026945;28;20025;-72
2022/03/15 08:21:18;;;;;;;0.20;0.20;;;11.20;59.60;;;;;;5027023;28;20029;-71
2022/03/15 08:23:45;;;;;;;0.20;0.20;;;11.30;59.60;;;;;;5027459;28;20120;-73
2022/03/15 08:26:12;;;;;;;4.15;1.27;;;11.30;60.00;;;;;;5025343;28;20053;-74
2022/03/15 08:28:38;;;;;;;0.20;0.20;;;11.30;60.40;;;;;;5025667;28;20550;-73
2022/03/15 08:31:04;;;;;;;0.32;0.32;;;11.30;60.90;;;;;;5027120;28;20061;-73
2022/03/15 08:33:29;;;;;;;0.90;0.90;;;11.20;61.20;;;;;;5025931;28;20116;-74
2022/03/15 08:35:55;;;;;;;0.95;0.95;;;11.10;61.30;;;;;;5026671;28;20482;-74
2022/03/15 08:38:21;;;;;;;0.73;0.50;;;11.20;61.30;;;;;;5026249;28;20044;-76
2022/03/15 08:40:47;;;;;;;0.30;0.30;;;11.20;61.20;;;;;;5022686;28;20060;-72
2022/03/15 08:43:13;;;;;;;0.20;0.20;;;11.30;63.50;;;;;;5025624;28;20038;-73
2022/03/15 08:45:39;;;;;;;0.20;0.20;;;11.30;61.70;;;;;;5025667;28;20096;-73
2022/03/15 08:48:06;;;;;;;0.20;0.20;;;11.40;61.80;;;;;;5024400;28;20029;-73
2022/03/15 08:50:33;;;;;;;0.30;0.30;;;11.40;61.80;;;;;;5026713;28;20141;-73
2022/03/15 08:52:59;;;;;;;0.20;0.20;;;11.50;61.50;;;;;;5025545;28;20030;-73
2022/03/15 08:55:26;;;;;;;0.20;0.20;;;11.60;63.50;;;;;;5024845;28;20033;-70
2022/03/15 08:57:52;;;;;;;0.22;0.22;;;11.60;62.60;;;;;;5024009;28;20041;-70
2022/03/15 09:00:18;;;;;;;0.30;0.30;;;11.70;62.80;;;;;;5023482;28;20540;-70
2022/03/15 09:02:44;;;;;;;0.20;0.20;;;11.80;61.90;;;;;;5024396;28;20144;-70
2022/03/15 09:05:11;;;;;;;1.50;1.40;;;11.70;63.40;;;;;;5038637;28;20034;-70
2022/03/15 09:07:39;;;;;;;0.40;0.40;;;11.70;62.60;;;;;;5019470;28;20033;-69
2022/03/15 09:10:05;;;;;;;0.20;0.20;;;11.70;61.40;;;;;;5021505;28;20060;-71
2022/03/15 09:12:31;;;;;;;33.60;12.70;;;11.80;60.70;;;;;;5024084;28;20048;-71
2022/03/15 09:14:57;;;;;;;0.20;0.20;;;11.90;60.30;;;;;;5023400;28;20446;-71
2022/03/15 09:17:23;;;;;;;0.20;0.20;;;11.90;59.80;;;;;;5022680;28;20025;-71
2022/03/15 09:19:51;;;;;;;0.20;0.20;;;12.00;59.90;;;;;;5024102;28;20035;-70
2022/03/15 09:22:17;;;;;;;0.20;0.20;;;12.00;60.20;;;;;;5023217;28;20037;-71
2022/03/15 09:24:43;;;;;;;0.20;0.20;;;12.00;60.50;;;;;;5022717;28;20065;-71
2022/03/15 09:27:10;;;;;;;0.20;0.20;;;12.00;60.50;;;;;;5022635;28;20111;-70
2022/03/15 09:29:36;;;;;;;0.32;0.32;;;12.00;60.20;;;;;;5024219;28;20460;-70
2022/03/15 09:32:04;;;;;;;0.20;0.20;;;12.10;60.00;;;;;;5022471;28;20033;-71
2022/03/15 09:34:30;;;;;;;0.30;0.30;;;12.10;59.90;;;;;;5021747;28;20087;-70
2022/03/15 09:36:59;;;;;;;0.13;0.13;;;12.10;59.70;;;;;;5023673;28;20042;-70
2022/03/15 09:39:25;;;;;;;0.20;0.20;;;12.20;59.80;;;;;;5022459;28;20052;-71
2022/03/15 09:41:53;;;;;;;0.13;0.13;;;12.20;60.10;;;;;;5022153;28;20133;-71
2022/03/15 09:44:20;;;;;;;0.10;0.10;;;12.30;60.10;;;;;;5023110;28;20041;-71
2022/03/15 09:46:51;;;;;;;0.20;0.20;;;12.30;60.10;;;;;;5022137;28;20382;-69
2022/03/15 09:49:18;;;;;;;0.30;0.30;;;12.10;60.60;;;;;;5022309;28;20036;-71
2022/03/15 09:51:47;;;;;;;0.20;0.20;;;12.10;60.80;;;;;;5023676;28;20037;-71
2022/03/15 09:54:14;;;;;;;0.20;0.20;;;12.20;60.90;;;;;;5023402;28;20067;-72
2022/03/15 09:56:41;;;;;;;0.38;0.38;;;12.30;60.40;;;;;;5023513;28;20037;-71
2022/03/15 09:59:14;;;;;;;0.20;0.20;;;12.40;60.20;;;;;;5023065;28;20436;-71
2022/03/15 10:01:41;;;;;;;0.20;0.20;;;12.50;60.10;;;;;;5023964;28;20029;-72
2022/03/15 10:04:08;;;;;;;0.65;0.47;;;12.50;60.20;;;;;;5023460;28;20101;-71
2022/03/15 10:09:01;;;;;;;0.20;0.20;;;12.40;60.80;;;;;;4999825;28;20418;-71
2022/03/15 10:11:27;;;;;;;0.52;0.52;;;12.30;61.50;;;;;;5001259;28;20037;-71
2022/03/15 10:13:54;;;;;;;2.28;0.85;;;12.20;61.70;;;;;;5001994;28;20097;-71
2022/03/15 10:16:22;;;;;;;0.50;0.50;;;12.10;62.40;;;;;;4983805;28;20551;-71
2022/03/15 10:18:56;;;;;;;3.50;1.75;;;12.00;62.60;;;;;;5002323;28;20436;-71
2022/03/15 10:21:25;;;;;;;0.20;0.20;;;11.80;62.70;;;;;;5002832;28;20034;-71
2022/03/15 10:23:57;;;;;;;0.20;0.20;;;12.00;63.30;;;;;;5003417;28;20533;-71
2022/03/15 10:26:25;;;;;;;0.20;0.20;;;12.20;63.10;;;;;;4987583;28;20481;-72
2022/03/15 10:28:53;;;;;;;0.20;0.20;;;12.30;62.50;;;;;;5005510;28;20381;-75
2022/03/15 10:31:24;;;;;;;0.20;0.20;;;12.40;62.00;;;;;;5002052;28;20030;-72
2022/03/15 10:33:52;;;;;;;0.20;0.20;;;12.30;62.50;;;;;;5000981;28;20108;-72
2022/03/15 10:36:21;;;;;;;0.20;0.20;;;12.30;62.90;;;;;;5001409;28;20024;-72
2022/03/15 10:38:51;;;;;;;0.20;0.20;;;12.40;63.20;;;;;;4983756;28;20084;-72
2022/03/15 10:41:18;;;;;;;0.20;0.20;;;12.50;63.20;;;;;;5001610;28;20041;-71
2022/03/15 10:43:49;;;;;;;1.15;0.88;;;12.60;64.00;;;;;;5000923;28;20076;-72
2022/03/15 10:46:22;;;;;;;0.20;0.20;;;12.50;63.30;;;;;;4983452;28;20120;-72
2022/03/15 10:49:02;;;;;;;0.20;0.20;;;12.60;63.70;;;;;;4983381;28;20076;-71
2022/03/15 10:51:28;;;;;;;0.20;0.20;;;12.70;63.80;;;;;;5001385;28;20038;-72
2022/03/15 10:54:02;;;;;;;0.28;0.28;;;12.80;64.00;;;;;;5001067;28;20034;-71
2022/03/15 10:56:28;;;;;;;0.20;0.20;;;12.80;64.00;;;;;;5001816;28;20033;-72
2022/03/15 10:58:59;;;;;;;0.20;0.20;;;12.70;64.00;;;;;;4998621;28;20052;-72
2022/03/15 11:01:27;;;;;;;0.20;0.20;;;12.80;64.20;;;;;;5000848;28;20030;-72
2022/03/15 11:03:57;;;;;;;0.17;0.17;;;12.80;64.60;;;;;;5000953;28;20096;-72
2022/03/15 11:06:44;;;;;;;0.20;0.20;;;12.80;64.60;;;;;;5001465;28;20076;-72
2022/03/15 11:09:24;;;;;;;0.20;0.20;;;12.90;64.70;;;;;;5000050;28;20064;-72
2022/03/15 11:11:53;;;;;;;0.10;0.10;;;12.90;64.20;;;;;;5001541;28;20032;-73
2022/03/15 11:14:36;;;;;;;0.20;0.20;;;12.90;64.00;;;;;;5016990;28;20033;-72
2022/03/15 11:17:25;;;;;;;0.47;0.45;;;12.80;63.20;;;;;;4983705;28;20036;-72
2022/03/15 11:19:59;;;;;;;0.10;0.10;;;12.90;63.00;;;;;;4983344;28;20463;-72
2022/03/15 11:22:27;;;;;;;0.10;0.10;;;12.90;63.40;;;;;;5001098;28;20111;-72
2022/03/15 11:25:11;;;;;;;0.20;0.20;;;12.90;63.30;;;;;;4999747;28;20298;-72
2022/03/15 11:27:42;;;;;;;0.20;0.20;;;13.00;63.70;;;;;;5002296;28;21414;-72
2022/03/15 11:30:13;;;;;;;0.20;0.20;;;13.00;61.90;;;;;;5018725;28;20029;-72
2022/03/15 11:32:39;;;;;;;0.20;0.20;;;13.00;61.80;;;;;;4986845;28;20072;-73
2022/03/15 11:35:08;;;;;;;0.20;0.20;;;13.00;62.00;;;;;;5004307;28;20116;-72
2022/03/15 11:37:35;;;;;;;0.20;0.20;;;13.00;62.20;;;;;;5004575;28;20037;-72
2022/03/15 11:40:04;;;;;;;0.20;0.20;;;12.90;62.40;;;;;;4986504;28;20045;-73
2022/03/15 11:42:35;;;;;;;0.63;0.52;;;12.90;61.60;;;;;;4985849;28;20038;-72
2022/03/15 11:45:20;;;;;;;0.20;0.20;;;12.90;60.50;;;;;;4986293;28;20042;-73
2022/03/15 11:48:15;;;;;;;0.20;0.20;;;13.00;60.00;;;;;;5003196;28;20418;-72
2022/03/15 11:51:06;;;;;;;0.20;0.20;;;12.90;59.30;;;;;;5004396;28;20104;-72
2022/03/15 11:54:14;;;;;;;0.28;0.28;;;12.90;58.60;;;;;;4986830;28;20445;-72
2022/03/15 11:57:09;;;;;;;0.20;0.20;;;12.80;58.60;;;;;;5004263;28;20026;-73
2022/03/15 11:59:48;;;;;;;0.20;0.20;;;12.70;59.00;;;;;;4986032;28;20026;-73
2022/03/15 12:02:34;;;;;;;0.17;0.17;;;12.80;59.00;;;;;;5004388;28;20044;-73
2022/03/15 12:05:20;;;;;;;0.20;0.20;;;12.80;58.80;;;;;;4986497;28;20246;-73
2022/03/15 12:08:04;;;;;;;0.47;0.47;;;12.80;58.70;;;;;;5002803;28;20046;-73
2022/03/15 12:10:35;;;;;;;0.20;0.20;;;13.00;58.70;;;;;;5004871;28;20539;-72
2022/03/15 12:13:04;;;;;;;0.10;0.10;;;13.00;59.50;;;;;;5004183;28;20478;-72
2022/03/15 12:15:38;;;;;;;0.20;0.20;;;13.00;58.90;;;;;;5002515;28;20038;-73
2022/03/15 12:21:02;;;;;;;0.20;0.20;;;13.00;59.40;;;;;;5003646;28;20042;-72
2022/03/15 12:23:37;;;;;;;0.20;0.20;;;13.10;59.10;;;;;;5002124;28;20053;-73
2022/03/15 12:26:03;;;;;;;0.20;0.20;;;13.00;59.50;;;;;;4986199;28;20080;-73
2022/03/15 12:28:31;;;;;;;0.20;0.20;;;13.00;60.00;;;;;;5002520;28;20493;-73
2022/03/15 12:31:08;;;;;;;0.20;0.20;;;13.00;59.60;;;;;;5004248;28;20037;-72
2022/03/15 12:33:34;;;;;;;0.20;0.20;;;12.80;59.70;;;;;;5002932;28;20379;-72
2022/03/15 12:36:05;;;;;;;0.20;0.20;;;12.90;60.10;;;;;;5003177;28;20080;-72
2022/03/15 12:38:33;;;;;;;0.20;0.20;;;12.80;59.70;;;;;;4986097;28;20066;-72
2022/03/15 12:41:01;;;;;;;0.20;0.20;;;12.80;60.20;;;;;;5003818;28;20536;-72
2022/03/15 12:43:27;;;;;;;0.20;0.20;;;12.80;62.80;;;;;;4986904;28;20117;-72
2022/03/15 12:45:53;;;;;;;0.20;0.20;;;12.70;63.80;;;;;;5002654;28;20033;-72
2022/03/15 12:48:33;;;;;;;0.20;0.20;;;12.70;64.10;;;;;;5004201;28;20372;-73
2022/03/15 12:51:01;;;;;;;0.40;0.40;;;12.80;68.40;;;;;;5008435;28;20022;-72
2022/03/15 12:53:39;;;;;;;0.20;0.20;;;12.80;67.60;;;;;;5003526;28;20030;-72
2022/03/15 12:56:06;;;;;;;0.20;0.20;;;12.80;69.40;;;;;;5002019;28;20103;-72
2022/03/15 12:58:32;;;;;;;0.20;0.20;;;12.80;68.60;;;;;;5002602;28;20037;-72
2022/03/15 13:00:58;;;;;;;0.20;0.20;;;12.70;69.90;;;;;;4984998;28;20025;-72
2022/03/15 13:03:24;;;;;;;0.20;0.20;;;12.70;70.40;;;;;;4984033;28;20153;-72